sensor_id;sensor_type;location;lat;lon;timestamp;pressure;altitude;pressure_sealevel;temperature;humidity
6528;BME280;3297;42.664;23.256;2022-07-10T00:01:25;50589.66;;;-139.84;88.81
6528;BME280;3297;42.664;23.256;2022-07-10T00:03:51;50616.88;;;-139.84;88.70
6528;BME280;3297;42.664;23.256;2022-07-10T00:06:17;50579.94;;;-139.84;88.94
6528;BME280;3297;42.664;23.256;2022-07-10T00:08:42;50630.50;;;-139.84;89.05
6528;BME280;3297;42.664;23.256;2022-07-10T00:11:09;50616.88;;;-139.84;89.30
6528;BME280;3297;42.664;23.256;2022-07-10T00:13:35;50611.06;;;-139.84;89.19
6528;BME280;3297;42.664;23.256;2022-07-10T00:16:00;50605.22;;;-139.84;88.97
6528;BME280;3297;42.664;23.256;2022-07-10T00:18:28;50591.63;;;-139.84;88.92
6528;BME280;3297;42.664;23.256;2022-07-10T00:20:53;50599.38;;;-139.84;88.97
6528;BME280;3297;42.664;23.256;2022-07-10T00:23:19;50581.91;;;-139.84;89.06
6528;BME280;3297;42.664;23.256;2022-07-10T00:25:45;50638.25;;;-139.84;89.19
6528;BME280;3297;42.664;23.256;2022-07-10T00:28:11;50591.63;;;-139.84;89.23
6528;BME280;3297;42.664;23.256;2022-07-10T00:30:37;50618.81;;;-139.84;89.29
6528;BME280;3297;42.664;23.256;2022-07-10T00:33:03;50614.94;;;-139.84;89.25
6528;BME280;3297;42.664;23.256;2022-07-10T00:35:29;50599.38;;;-139.84;88.92
6528;BME280;3297;42.664;23.256;2022-07-10T00:37:55;50607.16;;;-139.84;88.72
6528;BME280;3297;42.664;23.256;2022-07-10T00:40:21;50574.13;;;-139.84;88.78
6528;BME280;3297;42.664;23.256;2022-07-10T00:42:47;50591.63;;;-139.84;89.11
6528;BME280;3297;42.664;23.256;2022-07-10T00:45:12;50601.34;;;-139.84;89.38
6528;BME280;3297;42.664;23.256;2022-07-10T00:47:39;50611.06;;;-139.84;89.35
6528;BME280;3297;42.664;23.256;2022-07-10T00:50:06;50611.06;;;-139.84;89.40
6528;BME280;3297;42.664;23.256;2022-07-10T00:52:33;50609.09;;;-139.84;89.42
6528;BME280;3297;42.664;23.256;2022-07-10T00:55:01;50572.19;;;-139.84;89.46
6528;BME280;3297;42.664;23.256;2022-07-10T00:57:27;50630.50;;;-139.84;89.46
6528;BME280;3297;42.664;23.256;2022-07-10T00:59:53;50603.28;;;-139.84;89.81
6528;BME280;3297;42.664;23.256;2022-07-10T01:02:19;50607.16;;;-139.84;90.01
6528;BME280;3297;42.664;23.256;2022-07-10T01:04:45;50595.50;;;-139.84;90.28
6528;BME280;3297;42.664;23.256;2022-07-10T01:07:11;50597.44;;;-139.84;90.12
6528;BME280;3297;42.664;23.256;2022-07-10T01:09:37;50589.66;;;-139.84;90.00
6528;BME280;3297;42.664;23.256;2022-07-10T01:12:03;50634.38;;;-139.84;90.07
6528;BME280;3297;42.664;23.256;2022-07-10T01:14:30;50630.50;;;-139.84;90.07
6528;BME280;3297;42.664;23.256;2022-07-10T01:16:57;50642.16;;;-139.84;89.96
6528;BME280;3297;42.664;23.256;2022-07-10T01:19:23;50611.06;;;-139.84;89.75
6528;BME280;3297;42.664;23.256;2022-07-10T01:21:48;50572.19;;;-139.84;89.87
6528;BME280;3297;42.664;23.256;2022-07-10T01:24:14;50618.81;;;-139.84;89.79
6528;BME280;3297;42.664;23.256;2022-07-10T01:26:40;50618.81;;;-139.84;89.70
6528;BME280;3297;42.664;23.256;2022-07-10T01:29:09;50622.72;;;-139.84;89.35
6528;BME280;3297;42.664;23.256;2022-07-10T01:31:35;50636.31;;;-139.84;89.63
6528;BME280;3297;42.664;23.256;2022-07-10T01:34:02;50630.50;;;-139.84;89.90
6528;BME280;3297;42.664;23.256;2022-07-10T01:36:30;50579.94;;;-139.84;90.11
6528;BME280;3297;42.664;23.256;2022-07-10T01:38:56;50611.06;;;-139.84;90.19
6528;BME280;3297;42.664;23.256;2022-07-10T01:41:23;50630.50;;;-139.84;90.35
6528;BME280;3297;42.664;23.256;2022-07-10T01:43:49;50611.06;;;-139.84;89.97
6528;BME280;3297;42.664;23.256;2022-07-10T01:46:15;50647.97;;;-139.84;89.77
6528;BME280;3297;42.664;23.256;2022-07-10T01:48:42;50583.84;;;-139.84;89.76
6528;BME280;3297;42.664;23.256;2022-07-10T01:51:09;50601.34;;;-139.84;89.79
6528;BME280;3297;42.664;23.256;2022-07-10T01:53:35;50603.28;;;-139.84;89.49
6528;BME280;3297;42.664;23.256;2022-07-10T01:56:04;50616.88;;;-139.84;88.98
6528;BME280;3297;42.664;23.256;2022-07-10T01:58:30;50632.44;;;-139.84;89.05
6528;BME280;3297;42.664;23.256;2022-07-10T02:00:56;50585.78;;;-139.84;88.66
6528;BME280;3297;42.664;23.256;2022-07-10T02:03:22;50638.25;;;-139.84;88.59
6528;BME280;3297;42.664;23.256;2022-07-10T02:06:06;50626.59;;;-139.84;88.66
6528;BME280;3297;42.664;23.256;2022-07-10T02:08:32;50626.59;;;-139.84;88.76
6528;BME280;3297;42.664;23.256;2022-07-10T02:10:58;50640.22;;;-139.84;88.94
6528;BME280;3297;42.664;23.256;2022-07-10T02:13:24;50622.72;;;-139.84;88.72
6528;BME280;3297;42.664;23.256;2022-07-10T02:15:53;50599.38;;;-139.84;88.95
6528;BME280;3297;42.664;23.256;2022-07-10T02:18:19;50616.88;;;-139.84;88.76
6528;BME280;3297;42.664;23.256;2022-07-10T02:20:45;50640.22;;;-139.84;89.19
6528;BME280;3297;42.664;23.256;2022-07-10T02:23:11;50607.16;;;-139.84;89.13
6528;BME280;3297;42.664;23.256;2022-07-10T02:25:37;50614.94;;;-139.84;88.83
6528;BME280;3297;42.664;23.256;2022-07-10T02:28:03;50624.66;;;-139.84;88.66
6528;BME280;3297;42.664;23.256;2022-07-10T02:30:28;50614.94;;;-139.84;88.89
6528;BME280;3297;42.664;23.256;2022-07-10T02:32:54;50649.94;;;-139.84;88.68
6528;BME280;3297;42.664;23.256;2022-07-10T02:35:20;50618.81;;;-139.84;89.36
6528;BME280;3297;42.664;23.256;2022-07-10T02:37:45;50673.25;;;-139.84;89.25
6528;BME280;3297;42.664;23.256;2022-07-10T02:40:11;50649.94;;;-139.84;89.28
6528;BME280;3297;42.664;23.256;2022-07-10T02:42:36;50591.63;;;-139.84;89.49
6528;BME280;3297;42.664;23.256;2022-07-10T02:45:03;50611.06;;;-139.84;89.69
6528;BME280;3297;42.664;23.256;2022-07-10T02:47:28;50601.34;;;-139.84;89.29
6528;BME280;3297;42.664;23.256;2022-07-10T02:49:54;50587.72;;;-139.84;89.17
6528;BME280;3297;42.664;23.256;2022-07-10T02:52:19;50607.16;;;-139.84;89.26
6528;BME280;3297;42.664;23.256;2022-07-10T02:54:45;50605.22;;;-139.84;89.45
6528;BME280;3297;42.664;23.256;2022-07-10T02:57:11;50607.16;;;-139.84;89.56
6528;BME280;3297;42.664;23.256;2022-07-10T02:59:36;50595.50;;;-139.84;89.88
6528;BME280;3297;42.664;23.256;2022-07-10T03:02:02;50616.88;;;-139.84;89.35
6528;BME280;3297;42.664;23.256;2022-07-10T03:04:28;50618.81;;;-139.84;89.15
6528;BME280;3297;42.664;23.256;2022-07-10T03:06:53;50591.63;;;-139.84;88.94
6528;BME280;3297;42.664;23.256;2022-07-10T03:09:19;50616.88;;;-139.84;88.99
6528;BME280;3297;42.664;23.256;2022-07-10T03:11:44;50622.72;;;-139.84;88.85
6528;BME280;3297;42.664;23.256;2022-07-10T03:14:10;50618.81;;;-139.84;88.41
6528;BME280;3297;42.664;23.256;2022-07-10T03:16:36;50614.94;;;-139.84;88.44
6528;BME280;3297;42.664;23.256;2022-07-10T03:19:02;50647.97;;;-139.84;88.02
6528;BME280;3297;42.664;23.256;2022-07-10T03:21:28;50622.72;;;-139.84;88.04
6528;BME280;3297;42.664;23.256;2022-07-10T03:23:55;50636.31;;;-139.84;87.71
6528;BME280;3297;42.664;23.256;2022-07-10T03:26:21;50642.16;;;-139.84;87.08
6528;BME280;3297;42.664;23.256;2022-07-10T03:28:46;50630.50;;;-139.84;86.95
6528;BME280;3297;42.664;23.256;2022-07-10T03:31:12;50622.72;;;-139.84;87.10
6528;BME280;3297;42.664;23.256;2022-07-10T03:33:38;50642.16;;;-139.84;87.00
6528;BME280;3297;42.664;23.256;2022-07-10T03:36:04;50595.50;;;-139.84;87.35
6528;BME280;3297;42.664;23.256;2022-07-10T03:38:30;50583.84;;;-139.84;87.67
6528;BME280;3297;42.664;23.256;2022-07-10T03:40:56;50640.22;;;-139.84;87.61
6528;BME280;3297;42.664;23.256;2022-07-10T03:43:21;50634.38;;;-139.84;87.13
6528;BME280;3297;42.664;23.256;2022-07-10T03:45:47;50651.88;;;-139.84;87.02
6528;BME280;3297;42.664;23.256;2022-07-10T03:48:12;50630.50;;;-139.84;86.58
6528;BME280;3297;42.664;23.256;2022-07-10T03:50:38;50657.69;;;-139.84;86.58
6528;BME280;3297;42.664;23.256;2022-07-10T03:53:04;50667.41;;;-139.84;86.36
6528;BME280;3297;42.664;23.256;2022-07-10T03:55:29;50653.81;;;-139.84;86.23
6528;BME280;3297;42.664;23.256;2022-07-10T03:57:55;50603.28;;;-139.84;86.43
6528;BME280;3297;42.664;23.256;2022-07-10T04:00:23;50651.88;;;-139.84;86.25
6528;BME280;3297;42.664;23.256;2022-07-10T04:03:03;50614.94;;;-139.84;86.11
6528;BME280;3297;42.664;23.256;2022-07-10T04:05:30;50669.38;;;-139.84;85.77
6528;BME280;3297;42.664;23.256;2022-07-10T04:07:56;50597.44;;;-139.84;85.70
6528;BME280;3297;42.664;23.256;2022-07-10T04:10:22;50634.38;;;-139.84;85.62
6528;BME280;3297;42.664;23.256;2022-07-10T04:12:48;50651.88;;;-139.84;85.43
6528;BME280;3297;42.664;23.256;2022-07-10T04:15:14;50636.31;;;-139.84;84.80
6528;BME280;3297;42.664;23.256;2022-07-10T04:17:39;50642.16;;;-139.84;83.94
6528;BME280;3297;42.664;23.256;2022-07-10T04:20:06;50649.94;;;-139.84;83.59
6528;BME280;3297;42.664;23.256;2022-07-10T04:22:31;50642.16;;;-139.84;83.35
6528;BME280;3297;42.664;23.256;2022-07-10T04:24:57;50657.69;;;-139.84;83.48
6528;BME280;3297;42.664;23.256;2022-07-10T04:27:22;50601.34;;;-139.84;83.62
6528;BME280;3297;42.664;23.256;2022-07-10T04:29:48;50673.25;;;-139.84;83.75
6528;BME280;3297;42.664;23.256;2022-07-10T04:32:15;50657.69;;;-139.84;82.83
6528;BME280;3297;42.664;23.256;2022-07-10T04:34:41;50630.50;;;-139.84;82.06
6528;BME280;3297;42.664;23.256;2022-07-10T04:37:07;50620.78;;;-139.84;81.29
6528;BME280;3297;42.664;23.256;2022-07-10T04:39:33;50618.81;;;-139.84;81.11
6528;BME280;3297;42.664;23.256;2022-07-10T04:42:01;50663.53;;;-139.84;81.00
6528;BME280;3297;42.664;23.256;2022-07-10T04:44:27;50682.97;;;-139.84;80.81
6528;BME280;3297;42.664;23.256;2022-07-10T04:46:52;50704.34;;;-139.84;80.28
6528;BME280;3297;42.664;23.256;2022-07-10T04:49:18;50661.59;;;-139.84;79.86
6528;BME280;3297;42.664;23.256;2022-07-10T04:51:44;50677.13;;;-139.84;77.52
6528;BME280;3297;42.664;23.256;2022-07-10T04:54:10;50677.13;;;-139.84;77.71
6528;BME280;3297;42.664;23.256;2022-07-10T04:56:35;50681.03;;;-139.84;78.12
6528;BME280;3297;42.664;23.256;2022-07-10T04:59:01;50638.25;;;-139.84;77.34
6528;BME280;3297;42.664;23.256;2022-07-10T05:01:27;50681.03;;;-139.84;77.06
6528;BME280;3297;42.664;23.256;2022-07-10T05:03:53;50657.69;;;-139.84;76.23
6528;BME280;3297;42.664;23.256;2022-07-10T05:06:18;50677.13;;;-139.84;73.74
6528;BME280;3297;42.664;23.256;2022-07-10T05:08:44;50684.91;;;-139.84;73.84
6528;BME280;3297;42.664;23.256;2022-07-10T05:11:10;50665.47;;;-139.84;74.02
6528;BME280;3297;42.664;23.256;2022-07-10T05:13:36;50677.13;;;-139.84;73.55
6528;BME280;3297;42.664;23.256;2022-07-10T05:16:06;50727.69;;;-139.84;83.37
6528;BME280;3297;42.664;23.256;2022-07-10T05:18:32;50735.47;;;-139.84;78.88
6528;BME280;3297;42.664;23.256;2022-07-10T05:20:57;50756.84;;;-139.84;68.56
6528;BME280;3297;42.664;23.256;2022-07-10T05:23:23;50731.56;;;-139.84;63.29
6528;BME280;3297;42.664;23.256;2022-07-10T05:25:49;50758.78;;;-139.84;60.90
6528;BME280;3297;42.664;23.256;2022-07-10T05:28:14;50758.78;;;-139.84;58.58
6528;BME280;3297;42.664;23.256;2022-07-10T05:30:41;50719.91;;;-139.84;57.84
6528;BME280;3297;42.664;23.256;2022-07-10T05:33:07;50725.75;;;-139.84;56.97
6528;BME280;3297;42.664;23.256;2022-07-10T05:35:32;50723.78;;;-139.84;55.82
6528;BME280;3297;42.664;23.256;2022-07-10T05:37:58;50723.78;;;-139.84;56.37
6528;BME280;3297;42.664;23.256;2022-07-10T05:40:24;50727.69;;;-139.84;55.55
6528;BME280;3297;42.664;23.256;2022-07-10T05:42:50;50739.34;;;-139.84;54.90
6528;BME280;3297;42.664;23.256;2022-07-10T05:45:16;50766.56;;;-139.84;54.93
6528;BME280;3297;42.664;23.256;2022-07-10T05:47:41;50751.00;;;-139.84;54.24
6528;BME280;3297;42.664;23.256;2022-07-10T05:50:07;50712.13;;;-139.84;54.27
6528;BME280;3297;42.664;23.256;2022-07-10T05:52:33;50719.91;;;-139.84;53.54
6528;BME280;3297;42.664;23.256;2022-07-10T05:54:59;50706.31;;;-139.84;53.08
6528;BME280;3297;42.664;23.256;2022-07-10T05:57:25;50737.41;;;-139.84;52.92
6528;BME280;3297;42.664;23.256;2022-07-10T05:59:50;50731.56;;;-139.84;52.04
6528;BME280;3297;42.664;23.256;2022-07-10T06:02:16;50735.47;;;-139.84;51.46
6528;BME280;3297;42.664;23.256;2022-07-10T06:04:42;50716.03;;;-139.84;50.50
6528;BME280;3297;42.664;23.256;2022-07-10T06:07:08;50760.72;;;-139.84;50.20
6528;BME280;3297;42.664;23.256;2022-07-10T06:09:34;50721.84;;;-139.84;50.58
6528;BME280;3297;42.664;23.256;2022-07-10T06:12:00;50739.34;;;-139.84;49.66
6528;BME280;3297;42.664;23.256;2022-07-10T06:14:26;50716.03;;;-139.84;49.02
6528;BME280;3297;42.664;23.256;2022-07-10T06:16:51;50737.41;;;-139.84;48.19
6528;BME280;3297;42.664;23.256;2022-07-10T06:19:17;50727.69;;;-139.84;48.84
6528;BME280;3297;42.664;23.256;2022-07-10T06:21:43;50727.69;;;-139.84;49.40
6528;BME280;3297;42.664;23.256;2022-07-10T06:24:10;50719.91;;;-139.84;48.54
6528;BME280;3297;42.664;23.256;2022-07-10T06:26:35;50747.13;;;-139.84;47.81
6528;BME280;3297;42.664;23.256;2022-07-10T06:29:02;50719.91;;;-139.84;47.24
6528;BME280;3297;42.664;23.256;2022-07-10T06:31:28;50751.00;;;-139.84;46.48
6528;BME280;3297;42.664;23.256;2022-07-10T06:33:54;50704.34;;;-139.84;46.77
6528;BME280;3297;42.664;23.256;2022-07-10T06:36:20;50723.78;;;-139.84;46.99
6528;BME280;3297;42.664;23.256;2022-07-10T06:38:46;50752.94;;;-139.84;46.30
6528;BME280;3297;42.664;23.256;2022-07-10T06:41:11;50747.13;;;-139.84;45.37
6528;BME280;3297;42.664;23.256;2022-07-10T06:43:37;50688.81;;;-139.84;45.15
6528;BME280;3297;42.664;23.256;2022-07-10T06:46:03;50698.53;;;-139.84;44.63
6528;BME280;3297;42.664;23.256;2022-07-10T06:48:29;50712.13;;;-139.84;43.96
6528;BME280;3297;42.664;23.256;2022-07-10T06:50:55;50679.09;;;-139.84;44.31
6528;BME280;3297;42.664;23.256;2022-07-10T06:53:21;50735.47;;;-139.84;44.67
6528;BME280;3297;42.664;23.256;2022-07-10T06:55:52;50747.13;;;-139.84;44.22
6528;BME280;3297;42.664;23.256;2022-07-10T06:58:18;50739.34;;;-139.84;44.03
6528;BME280;3297;42.664;23.256;2022-07-10T07:00:44;50754.91;;;-139.84;43.83
6528;BME280;3297;42.664;23.256;2022-07-10T07:03:10;50758.78;;;-139.84;43.64
6528;BME280;3297;42.664;23.256;2022-07-10T07:05:35;50731.56;;;-139.84;43.46
6528;BME280;3297;42.664;23.256;2022-07-10T07:08:01;50727.69;;;-139.84;43.81
6528;BME280;3297;42.664;23.256;2022-07-10T07:10:26;50739.34;;;-139.84;43.36
6528;BME280;3297;42.664;23.256;2022-07-10T07:12:52;50751.00;;;-139.84;42.31
6528;BME280;3297;42.664;23.256;2022-07-10T07:15:18;50756.84;;;-139.84;43.37
6528;BME280;3297;42.664;23.256;2022-07-10T07:17:45;50731.56;;;-139.84;42.90
6528;BME280;3297;42.664;23.256;2022-07-10T07:20:34;50739.34;;;-139.84;41.83
6528;BME280;3297;42.664;23.256;2022-07-10T07:23:19;50737.41;;;-139.84;41.47
6528;BME280;3297;42.664;23.256;2022-07-10T07:25:45;50743.22;;;-139.84;42.64
6528;BME280;3297;42.664;23.256;2022-07-10T07:28:15;50710.19;;;-139.84;42.19
6528;BME280;3297;42.664;23.256;2022-07-10T07:30:41;50708.25;;;-139.84;41.99
6528;BME280;3297;42.664;23.256;2022-07-10T07:33:07;50735.47;;;-139.84;41.55
6528;BME280;3297;42.664;23.256;2022-07-10T07:35:33;50758.78;;;-139.84;40.80
6528;BME280;3297;42.664;23.256;2022-07-10T07:38:01;50745.19;;;-139.84;39.91
6528;BME280;3297;42.664;23.256;2022-07-10T07:40:27;50731.56;;;-139.84;39.31
6528;BME280;3297;42.664;23.256;2022-07-10T07:42:53;50741.28;;;-139.84;39.30
6528;BME280;3297;42.664;23.256;2022-07-10T07:45:20;50723.78;;;-139.84;38.89
6528;BME280;3297;42.664;23.256;2022-07-10T07:47:51;50731.56;;;-139.84;38.54
6528;BME280;3297;42.664;23.256;2022-07-10T07:50:18;50721.84;;;-139.84;38.35
6528;BME280;3297;42.664;23.256;2022-07-10T07:52:45;50708.25;;;-139.84;38.15
6528;BME280;3297;42.664;23.256;2022-07-10T07:55:12;50700.47;;;-139.84;37.66
6528;BME280;3297;42.664;23.256;2022-07-10T07:57:38;50716.03;;;-139.84;38.10
6528;BME280;3297;42.664;23.256;2022-07-10T08:00:05;50727.69;;;-139.84;37.36
6528;BME280;3297;42.664;23.256;2022-07-10T08:02:32;50754.91;;;-139.84;37.81
6528;BME280;3297;42.664;23.256;2022-07-10T08:04:58;50708.25;;;-139.84;37.33
6528;BME280;3297;42.664;23.256;2022-07-10T08:07:35;50743.22;;;-139.84;36.66
6528;BME280;3297;42.664;23.256;2022-07-10T08:10:03;50673.25;;;-139.84;34.26
6528;BME280;3297;42.664;23.256;2022-07-10T08:12:29;50727.69;;;-139.84;34.06
6528;BME280;3297;42.664;23.256;2022-07-10T08:14:55;50727.69;;;-139.84;35.90
6528;BME280;3297;42.664;23.256;2022-07-10T08:17:20;50733.50;;;-139.84;35.70
6528;BME280;3297;42.664;23.256;2022-07-10T08:19:47;50735.47;;;-139.84;35.04
6528;BME280;3297;42.664;23.256;2022-07-10T08:22:13;50716.03;;;-139.84;36.11
6528;BME280;3297;42.664;23.256;2022-07-10T08:24:38;50717.97;;;-139.84;36.11
6528;BME280;3297;42.664;23.256;2022-07-10T08:27:04;50704.34;;;-139.84;35.23
6528;BME280;3297;42.664;23.256;2022-07-10T08:29:31;50692.69;;;-139.84;35.16
6528;BME280;3297;42.664;23.256;2022-07-10T08:31:57;50735.47;;;-139.84;34.64
6528;BME280;3297;42.664;23.256;2022-07-10T08:34:22;50673.25;;;-139.84;35.48
6528;BME280;3297;42.664;23.256;2022-07-10T08:36:48;50700.47;;;-139.84;34.73
6528;BME280;3297;42.664;23.256;2022-07-10T08:39:14;50714.06;;;-139.84;34.88
6528;BME280;3297;42.664;23.256;2022-07-10T08:41:42;50700.47;;;-139.84;34.34
6528;BME280;3297;42.664;23.256;2022-07-10T08:44:08;50696.56;;;-139.84;34.94
6528;BME280;3297;42.664;23.256;2022-07-10T08:46:34;50719.91;;;-139.84;34.00
6528;BME280;3297;42.664;23.256;2022-07-10T08:49:03;50714.06;;;-139.84;33.80
6528;BME280;3297;42.664;23.256;2022-07-10T08:51:57;50704.34;;;-139.84;33.78
6528;BME280;3297;42.664;23.256;2022-07-10T08:54:23;50675.19;;;-139.84;34.27
6528;BME280;3297;42.664;23.256;2022-07-10T08:56:50;50649.94;;;-139.84;33.35
6528;BME280;3297;42.664;23.256;2022-07-10T08:59:18;50743.22;;;-139.84;32.31
6528;BME280;3297;42.664;23.256;2022-07-10T09:01:44;50702.41;;;-139.84;32.28
6528;BME280;3297;42.664;23.256;2022-07-10T09:04:21;50644.09;;;-139.84;32.31
6528;BME280;3297;42.664;23.256;2022-07-10T09:06:47;50696.56;;;-139.84;33.31
6528;BME280;3297;42.664;23.256;2022-07-10T09:09:13;50642.16;;;-139.84;33.45
6528;BME280;3297;42.664;23.256;2022-07-10T09:11:40;50688.81;;;-139.84;32.15
6528;BME280;3297;42.664;23.256;2022-07-10T09:14:09;50684.91;;;-139.84;33.89
6528;BME280;3297;42.664;23.256;2022-07-10T09:16:38;50692.69;;;-139.84;34.02
6528;BME280;3297;42.664;23.256;2022-07-10T09:19:25;50712.13;;;-139.84;34.34
6528;BME280;3297;42.664;23.256;2022-07-10T09:21:51;50684.91;;;-139.84;33.27
6528;BME280;3297;42.664;23.256;2022-07-10T09:24:17;50681.03;;;-139.84;32.69
6528;BME280;3297;42.664;23.256;2022-07-10T09:26:58;50671.31;;;-139.84;33.38
6528;BME280;3297;42.664;23.256;2022-07-10T09:29:25;50681.03;;;-139.84;33.19
6528;BME280;3297;42.664;23.256;2022-07-10T09:31:55;50677.13;;;-139.84;33.73
6528;BME280;3297;42.664;23.256;2022-07-10T09:40:04;50669.38;;;-139.84;34.28
6528;BME280;3297;42.664;23.256;2022-07-10T09:42:34;50653.81;;;-139.84;35.97
6528;BME280;3297;42.664;23.256;2022-07-10T09:45:21;50681.03;;;-139.84;34.41
6528;BME280;3297;42.664;23.256;2022-07-10T09:47:58;50677.13;;;-139.84;35.25
6528;BME280;3297;42.664;23.256;2022-07-10T09:50:32;50640.22;;;-139.84;35.34
6528;BME280;3297;42.664;23.256;2022-07-10T09:53:00;50677.13;;;-139.84;35.42
6528;BME280;3297;42.664;23.256;2022-07-10T09:55:28;50692.69;;;-139.84;35.90
6528;BME280;3297;42.664;23.256;2022-07-10T09:58:02;50665.47;;;-139.84;35.82
6528;BME280;3297;42.664;23.256;2022-07-10T10:00:30;50657.69;;;-139.84;35.60
6528;BME280;3297;42.664;23.256;2022-07-10T10:03:04;50700.47;;;-139.84;35.29
6528;BME280;3297;42.664;23.256;2022-07-10T10:05:39;50671.31;;;-139.84;34.55
6528;BME280;3297;42.664;23.256;2022-07-10T10:08:14;50659.66;;;-139.84;33.63
6528;BME280;3297;42.664;23.256;2022-07-10T10:10:49;50653.81;;;-139.84;33.65
6528;BME280;3297;42.664;23.256;2022-07-10T10:13:23;50679.09;;;-139.84;32.41
6528;BME280;3297;42.664;23.256;2022-07-10T10:15:50;50649.94;;;-139.84;32.65
6528;BME280;3297;42.664;23.256;2022-07-10T10:18:24;50642.16;;;-139.84;34.01
6528;BME280;3297;42.664;23.256;2022-07-10T10:20:51;50675.19;;;-139.84;34.78
6528;BME280;3297;42.664;23.256;2022-07-10T10:23:21;50646.03;;;-139.84;35.34
6528;BME280;3297;42.664;23.256;2022-07-10T10:25:48;50626.59;;;-139.84;35.58
6528;BME280;3297;42.664;23.256;2022-07-10T10:28:16;50698.53;;;-139.84;35.84
6528;BME280;3297;42.664;23.256;2022-07-10T10:30:45;50677.13;;;-139.84;36.21
6528;BME280;3297;42.664;23.256;2022-07-10T10:36:11;50649.94;;;-139.84;35.79
6528;BME280;3297;42.664;23.256;2022-07-10T10:41:29;50607.16;;;-139.84;36.28
6528;BME280;3297;42.664;23.256;2022-07-10T10:46:53;50634.38;;;-139.84;36.09
6528;BME280;3297;42.664;23.256;2022-07-10T10:49:23;50642.16;;;-139.84;35.63
6528;BME280;3297;42.664;23.256;2022-07-10T10:52:10;50616.88;;;-139.84;36.68
6528;BME280;3297;42.664;23.256;2022-07-10T10:59:58;50611.06;;;-139.84;35.95
6528;BME280;3297;42.664;23.256;2022-07-10T11:04:50;50614.94;;;-139.84;37.71
6528;BME280;3297;42.664;23.256;2022-07-10T11:10:34;50651.88;;;-139.84;35.30
6528;BME280;3297;42.664;23.256;2022-07-10T11:15:38;50653.81;;;-139.84;34.53
6528;BME280;3297;42.664;23.256;2022-07-10T11:18:06;50630.50;;;-139.84;34.25
6528;BME280;3297;42.664;23.256;2022-07-10T11:20:55;50595.50;;;-139.84;34.49
6528;BME280;3297;42.664;23.256;2022-07-10T11:26:05;50677.13;;;-139.84;35.52
6528;BME280;3297;42.664;23.256;2022-07-10T11:28:53;50638.25;;;-139.84;35.68
6528;BME280;3297;42.664;23.256;2022-07-10T11:31:20;50636.31;;;-139.84;35.98
6528;BME280;3297;42.664;23.256;2022-07-10T11:33:48;50622.72;;;-139.84;35.54
6528;BME280;3297;42.664;23.256;2022-07-10T11:36:16;50618.81;;;-139.84;35.45
6528;BME280;3297;42.664;23.256;2022-07-10T11:38:43;50665.47;;;-139.84;36.34
6528;BME280;3297;42.664;23.256;2022-07-10T11:41:18;50646.03;;;-139.84;36.35
6528;BME280;3297;42.664;23.256;2022-07-10T11:43:55;50607.16;;;-139.84;37.00
6528;BME280;3297;42.664;23.256;2022-07-10T11:46:25;50609.09;;;-139.84;36.01
6528;BME280;3297;42.664;23.256;2022-07-10T11:48:52;50684.91;;;-139.84;35.52
6528;BME280;3297;42.664;23.256;2022-07-10T11:51:33;50644.09;;;-139.84;35.63
6528;BME280;3297;42.664;23.256;2022-07-10T11:56:29;50630.50;;;-139.84;35.42
6528;BME280;3297;42.664;23.256;2022-07-10T11:59:02;50632.44;;;-139.84;35.19
6528;BME280;3297;42.664;23.256;2022-07-10T12:01:30;50614.94;;;-139.84;36.71
6528;BME280;3297;42.664;23.256;2022-07-10T12:04:05;50587.72;;;-139.84;35.86
6528;BME280;3297;42.664;23.256;2022-07-10T12:06:33;50611.06;;;-139.84;35.98
6528;BME280;3297;42.664;23.256;2022-07-10T12:09:08;50603.28;;;-139.84;34.61
6528;BME280;3297;42.664;23.256;2022-07-10T12:11:35;50589.66;;;-139.84;34.73
6528;BME280;3297;42.664;23.256;2022-07-10T12:16:41;50589.66;;;-139.84;35.02
6528;BME280;3297;42.664;23.256;2022-07-10T12:19:08;50644.09;;;-139.84;35.11
6528;BME280;3297;42.664;23.256;2022-07-10T12:21:35;50642.16;;;-139.84;35.27
6528;BME280;3297;42.664;23.256;2022-07-10T12:24:02;50611.06;;;-139.84;34.37
6528;BME280;3297;42.664;23.256;2022-07-10T12:26:39;50595.50;;;-139.84;35.63
6528;BME280;3297;42.664;23.256;2022-07-10T12:29:04;50657.69;;;-139.84;35.98
6528;BME280;3297;42.664;23.256;2022-07-10T12:31:32;50611.06;;;-139.84;36.37
6528;BME280;3297;42.664;23.256;2022-07-10T12:34:04;50605.22;;;-139.84;36.12
6528;BME280;3297;42.664;23.256;2022-07-10T12:36:52;50611.06;;;-139.84;37.36
6528;BME280;3297;42.664;23.256;2022-07-10T12:39:20;50591.63;;;-139.84;37.07
6528;BME280;3297;42.664;23.256;2022-07-10T12:44:38;50599.38;;;-139.84;36.70
6528;BME280;3297;42.664;23.256;2022-07-10T12:49:52;50609.09;;;-139.84;35.27
6528;BME280;3297;42.664;23.256;2022-07-10T12:52:29;50591.63;;;-139.84;35.83
6528;BME280;3297;42.664;23.256;2022-07-10T12:55:15;50611.06;;;-139.84;35.61
6528;BME280;3297;42.664;23.256;2022-07-10T12:58:20;50618.81;;;-139.84;35.31
6528;BME280;3297;42.664;23.256;2022-07-10T13:00:46;50589.66;;;-139.84;35.24
6528;BME280;3297;42.664;23.256;2022-07-10T13:03:20;50618.81;;;-139.84;35.08
6528;BME280;3297;42.664;23.256;2022-07-10T13:05:47;50583.84;;;-139.84;35.45
6528;BME280;3297;42.664;23.256;2022-07-10T13:08:18;50611.06;;;-139.84;35.30
6528;BME280;3297;42.664;23.256;2022-07-10T13:10:55;50591.63;;;-139.84;34.89
6528;BME280;3297;42.664;23.256;2022-07-10T13:13:21;50583.84;;;-139.84;34.39
6528;BME280;3297;42.664;23.256;2022-07-10T13:15:48;50620.78;;;-139.84;34.53
6528;BME280;3297;42.664;23.256;2022-07-10T13:18:22;50585.78;;;-139.84;34.67
6528;BME280;3297;42.664;23.256;2022-07-10T13:20:49;50628.53;;;-139.84;34.61
6528;BME280;3297;42.664;23.256;2022-07-10T13:23:16;50562.47;;;-139.84;35.03
6528;BME280;3297;42.664;23.256;2022-07-10T13:25:44;50576.06;;;-139.84;34.27
6528;BME280;3297;42.664;23.256;2022-07-10T13:28:10;50607.16;;;-139.84;34.75
6528;BME280;3297;42.664;23.256;2022-07-10T13:30:39;50616.88;;;-139.84;34.09
6528;BME280;3297;42.664;23.256;2022-07-10T13:33:05;50593.56;;;-139.84;34.20
6528;BME280;3297;42.664;23.256;2022-07-10T13:35:33;50603.28;;;-139.84;34.37